sensor_id;sensor_type;location;lat;lon;timestamp;temperature;humidity
70947;DHT22;58605;48.700;8.760;2023-02-28T00:01:11;-2.60;70.70
70947;DHT22;58605;48.700;8.760;2023-02-28T00:03:37;-2.50;70.50
70947;DHT22;58605;48.700;8.760;2023-02-28T00:06:04;-2.60;70.60
70947;DHT22;58605;48.700;8.760;2023-02-28T00:08:30;-2.60;70.80
70947;DHT22;58605;48.700;8.760;2023-02-28T00:11:00;-2.60;70.70
70947;DHT22;58605;48.700;8.760;2023-02-28T00:13:26;-2.60;70.80
70947;DHT22;58605;48.700;8.760;2023-02-28T00:15:59;-2.60;70.80
70947;DHT22;58605;48.700;8.760;2023-02-28T00:18:27;-2.60;71.10
70947;DHT22;58605;48.700;8.760;2023-02-28T00:20:53;-2.70;70.90
70947;DHT22;58605;48.700;8.760;2023-02-28T00:23:19;-2.60;71.10
70947;DHT22;58605;48.700;8.760;2023-02-28T00:25:45;-2.60;71.10
70947;DHT22;58605;48.700;8.760;2023-02-28T00:28:11;-2.60;70.90
70947;DHT22;58605;48.700;8.760;2023-02-28T00:30:38;-2.60;70.90
70947;DHT22;58605;48.700;8.760;2023-02-28T00:33:04;-2.60;71.00
70947;DHT22;58605;48.700;8.760;2023-02-28T00:35:31;-2.70;71.30
70947;DHT22;58605;48.700;8.760;2023-02-28T00:37:57;-2.70;71.50
70947;DHT22;58605;48.700;8.760;2023-02-28T00:40:23;-2.70;71.50
70947;DHT22;58605;48.700;8.760;2023-02-28T00:42:49;-2.70;71.40
70947;DHT22;58605;48.700;8.760;2023-02-28T00:45:15;-2.70;71.60
70947;DHT22;58605;48.700;8.760;2023-02-28T00:47:41;-2.70;71.50
70947;DHT22;58605;48.700;8.760;2023-02-28T00:50:08;-2.80;71.40
70947;DHT22;58605;48.700;8.760;2023-02-28T00:52:36;-2.80;72.20
70947;DHT22;58605;48.700;8.760;2023-02-28T00:55:02;-2.80;72.00
70947;DHT22;58605;48.700;8.760;2023-02-28T00:57:28;-2.80;72.40
70947;DHT22;58605;48.700;8.760;2023-02-28T00:59:54;-2.80;72.30
70947;DHT22;58605;48.700;8.760;2023-02-28T01:02:20;-2.80;72.80
70947;DHT22;58605;48.700;8.760;2023-02-28T01:04:47;-2.80;72.70
70947;DHT22;58605;48.700;8.760;2023-02-28T01:07:13;-2.80;73.00
70947;DHT22;58605;48.700;8.760;2023-02-28T01:09:41;-2.90;73.10
70947;DHT22;58605;48.700;8.760;2023-02-28T01:12:08;-2.90;73.50
70947;DHT22;58605;48.700;8.760;2023-02-28T01:14:34;-2.90;73.80
70947;DHT22;58605;48.700;8.760;2023-02-28T01:17:00;-3.00;73.90
70947;DHT22;58605;48.700;8.760;2023-02-28T01:19:26;-3.00;74.20
70947;DHT22;58605;48.700;8.760;2023-02-28T01:21:52;-3.00;74.30
70947;DHT22;58605;48.700;8.760;2023-02-28T01:24:19;-2.90;74.40
70947;DHT22;58605;48.700;8.760;2023-02-28T01:26:46;-3.00;74.60
70947;DHT22;58605;48.700;8.760;2023-02-28T01:29:27;-3.00;74.90
70947;DHT22;58605;48.700;8.760;2023-02-28T01:31:59;-3.00;75.10
70947;DHT22;58605;48.700;8.760;2023-02-28T01:34:25;-3.00;75.20
70947;DHT22;58605;48.700;8.760;2023-02-28T01:36:51;-3.00;75.40
70947;DHT22;58605;48.700;8.760;2023-02-28T01:39:17;-3.00;75.50
70947;DHT22;58605;48.700;8.760;2023-02-28T01:41:43;-2.90;75.50
70947;DHT22;58605;48.700;8.760;2023-02-28T01:47:10;-3.00;75.60
70947;DHT22;58605;48.700;8.760;2023-02-28T01:49:36;-3.00;75.90
70947;DHT22;58605;48.700;8.760;2023-02-28T01:52:03;-3.00;76.20
70947;DHT22;58605;48.700;8.760;2023-02-28T01:54:31;-3.10;76.60
70947;DHT22;58605;48.700;8.760;2023-02-28T01:57:00;-3.10;76.80
70947;DHT22;58605;48.700;8.760;2023-02-28T01:59:31;-3.10;76.90
70947;DHT22;58605;48.700;8.760;2023-02-28T02:02:25;-3.00;77.10
70947;DHT22;58605;48.700;8.760;2023-02-28T02:04:54;-3.00;77.30
70947;DHT22;58605;48.700;8.760;2023-02-28T02:07:21;-3.10;77.70
70947;DHT22;58605;48.700;8.760;2023-02-28T02:09:47;-3.10;78.10
70947;DHT22;58605;48.700;8.760;2023-02-28T02:12:22;-3.10;78.30
70947;DHT22;58605;48.700;8.760;2023-02-28T02:14:59;-3.10;78.60
70947;DHT22;58605;48.700;8.760;2023-02-28T02:17:30;-3.10;78.50
70947;DHT22;58605;48.700;8.760;2023-02-28T02:20:22;-3.10;78.80
70947;DHT22;58605;48.700;8.760;2023-02-28T02:26:12;-3.20;79.70
70947;DHT22;58605;48.700;8.760;2023-02-28T02:28:56;-3.20;79.60
70947;DHT22;58605;48.700;8.760;2023-02-28T02:34:49;-3.20;80.20
70947;DHT22;58605;48.700;8.760;2023-02-28T02:37:27;-3.20;80.10
70947;DHT22;58605;48.700;8.760;2023-02-28T02:40:02;-3.20;80.10
70947;DHT22;58605;48.700;8.760;2023-02-28T02:42:34;-3.20;80.40
70947;DHT22;58605;48.700;8.760;2023-02-28T02:45:06;-3.30;80.70
70947;DHT22;58605;48.700;8.760;2023-02-28T02:47:35;-3.30;81.10
70947;DHT22;58605;48.700;8.760;2023-02-28T02:50:06;-3.20;81.00
70947;DHT22;58605;48.700;8.760;2023-02-28T02:52:36;-3.20;80.90
70947;DHT22;58605;48.700;8.760;2023-02-28T02:55:05;-3.20;81.00
70947;DHT22;58605;48.700;8.760;2023-02-28T02:57:35;-3.30;81.40
70947;DHT22;58605;48.700;8.760;2023-02-28T03:00:04;-3.20;81.50
70947;DHT22;58605;48.700;8.760;2023-02-28T03:02:35;-3.20;81.50
70947;DHT22;58605;48.700;8.760;2023-02-28T03:05:06;-3.20;81.80
70947;DHT22;58605;48.700;8.760;2023-02-28T03:07:34;-3.30;82.00
70947;DHT22;58605;48.700;8.760;2023-02-28T03:10:00;-3.30;81.80
70947;DHT22;58605;48.700;8.760;2023-02-28T03:12:33;-3.30;82.30
70947;DHT22;58605;48.700;8.760;2023-02-28T03:15:10;-3.30;82.40
70947;DHT22;58605;48.700;8.760;2023-02-28T03:17:49;-3.30;82.70
70947;DHT22;58605;48.700;8.760;2023-02-28T03:20:32;-3.30;83.00
70947;DHT22;58605;48.700;8.760;2023-02-28T03:23:10;-3.40;83.10
70947;DHT22;58605;48.700;8.760;2023-02-28T03:25:48;-3.30;83.40
70947;DHT22;58605;48.700;8.760;2023-02-28T03:28:22;-3.40;83.50
70947;DHT22;58605;48.700;8.760;2023-02-28T03:30:55;-3.30;83.60
70947;DHT22;58605;48.700;8.760;2023-02-28T03:33:23;-3.30;83.60
70947;DHT22;58605;48.700;8.760;2023-02-28T03:35:56;-3.30;83.90
70947;DHT22;58605;48.700;8.760;2023-02-28T03:38:29;-3.20;83.80
70947;DHT22;58605;48.700;8.760;2023-02-28T03:41:01;-3.20;84.00
70947;DHT22;58605;48.700;8.760;2023-02-28T03:43:31;-3.20;84.30
70947;DHT22;58605;48.700;8.760;2023-02-28T03:45:59;-3.20;84.30
70947;DHT22;58605;48.700;8.760;2023-02-28T03:48:31;-3.20;84.90
70947;DHT22;58605;48.700;8.760;2023-02-28T03:51:00;-3.20;85.10
70947;DHT22;58605;48.700;8.760;2023-02-28T03:53:30;-3.10;85.30
70947;DHT22;58605;48.700;8.760;2023-02-28T03:56:01;-3.10;85.50
70947;DHT22;58605;48.700;8.760;2023-02-28T03:58:33;-3.10;86.20
70947;DHT22;58605;48.700;8.760;2023-02-28T04:01:05;-3.10;87.00
70947;DHT22;58605;48.700;8.760;2023-02-28T04:03:33;-3.10;87.20
70947;DHT22;58605;48.700;8.760;2023-02-28T04:06:02;-3.10;88.10
70947;DHT22;58605;48.700;8.760;2023-02-28T04:08:28;-3.10;88.90
70947;DHT22;58605;48.700;8.760;2023-02-28T04:10:58;-3.10;89.80
70947;DHT22;58605;48.700;8.760;2023-02-28T04:13:25;-3.10;90.30
70947;DHT22;58605;48.700;8.760;2023-02-28T04:15:51;-3.10;90.80
70947;DHT22;58605;48.700;8.760;2023-02-28T04:18:17;-3.10;91.50
70947;DHT22;58605;48.700;8.760;2023-02-28T04:20:43;-3.10;92.10
70947;DHT22;58605;48.700;8.760;2023-02-28T04:23:11;-3.10;92.50
70947;DHT22;58605;48.700;8.760;2023-02-28T04:25:36;-3.10;93.00
70947;DHT22;58605;48.700;8.760;2023-02-28T04:28:03;-3.00;93.90
70947;DHT22;58605;48.700;8.760;2023-02-28T04:30:28;-3.10;93.80
70947;DHT22;58605;48.700;8.760;2023-02-28T04:32:55;-3.00;95.10
70947;DHT22;58605;48.700;8.760;2023-02-28T04:35:21;-3.10;95.60
70947;DHT22;58605;48.700;8.760;2023-02-28T04:37:47;-3.10;96.10
70947;DHT22;58605;48.700;8.760;2023-02-28T04:40:14;-3.00;96.70
70947;DHT22;58605;48.700;8.760;2023-02-28T04:42:40;-2.90;97.00
70947;DHT22;58605;48.700;8.760;2023-02-28T04:45:08;-2.90;97.10
70947;DHT22;58605;48.700;8.760;2023-02-28T04:47:35;-2.90;98.10
70947;DHT22;58605;48.700;8.760;2023-02-28T04:50:01;-2.90;97.80
70947;DHT22;58605;48.700;8.760;2023-02-28T04:52:28;-2.90;97.70
70947;DHT22;58605;48.700;8.760;2023-02-28T04:54:54;-3.00;99.30
70947;DHT22;58605;48.700;8.760;2023-02-28T04:57:22;-3.00;99.00
70947;DHT22;58605;48.700;8.760;2023-02-28T04:59:48;-2.90;99.00
70947;DHT22;58605;48.700;8.760;2023-02-28T05:02:14;-2.80;99.30
70947;DHT22;58605;48.700;8.760;2023-02-28T05:04:40;-2.90;99.90
70947;DHT22;58605;48.700;8.760;2023-02-28T05:07:06;-2.80;99.90
70947;DHT22;58605;48.700;8.760;2023-02-28T05:09:32;-2.90;99.90
70947;DHT22;58605;48.700;8.760;2023-02-28T05:11:58;-2.90;99.90
70947;DHT22;58605;48.700;8.760;2023-02-28T05:14:26;-2.90;99.90
70947;DHT22;58605;48.700;8.760;2023-02-28T05:16:52;-2.90;99.90
70947;DHT22;58605;48.700;8.760;2023-02-28T05:19:18;-2.80;99.90
70947;DHT22;58605;48.700;8.760;2023-02-28T05:21:51;-2.90;99.90
70947;DHT22;58605;48.700;8.760;2023-02-28T05:24:18;-2.80;99.90
70947;DHT22;58605;48.700;8.760;2023-02-28T05:26:49;-2.80;99.90
70947;DHT22;58605;48.700;8.760;2023-02-28T05:29:17;-2.80;99.90
70947;DHT22;58605;48.700;8.760;2023-02-28T05:31:44;-2.70;99.90
70947;DHT22;58605;48.700;8.760;2023-02-28T05:34:10;-2.60;99.90
70947;DHT22;58605;48.700;8.760;2023-02-28T05:36:38;-2.70;99.90
70947;DHT22;58605;48.700;8.760;2023-02-28T05:39:05;-2.70;99.90
70947;DHT22;58605;48.700;8.760;2023-02-28T05:41:31;-2.70;99.90
70947;DHT22;58605;48.700;8.760;2023-02-28T05:43:58;-2.70;99.90
70947;DHT22;58605;48.700;8.760;2023-02-28T05:46:25;-2.70;99.90
70947;DHT22;58605;48.700;8.760;2023-02-28T05:48:52;-2.70;99.90
70947;DHT22;58605;48.700;8.760;2023-02-28T05:51:18;-2.70;99.90
70947;DHT22;58605;48.700;8.760;2023-02-28T05:53:45;-2.70;99.90
70947;DHT22;58605;48.700;8.760;2023-02-28T05:56:11;-2.70;99.90
70947;DHT22;58605;48.700;8.760;2023-02-28T05:58:37;-2.70;99.90
70947;DHT22;58605;48.700;8.760;2023-02-28T06:01:22;-2.60;99.90
70947;DHT22;58605;48.700;8.760;2023-02-28T06:03:49;-2.60;99.90
70947;DHT22;58605;48.700;8.760;2023-02-28T06:06:16;-2.60;99.90
70947;DHT22;58605;48.700;8.760;2023-02-28T06:08:42;-2.60;99.90
70947;DHT22;58605;48.700;8.760;2023-02-28T06:11:10;-2.50;99.90
70947;DHT22;58605;48.700;8.760;2023-02-28T06:13:36;-2.40;99.90
70947;DHT22;58605;48.700;8.760;2023-02-28T06:16:02;-2.40;99.90
70947;DHT22;58605;48.700;8.760;2023-02-28T06:18:28;-2.40;99.90
70947;DHT22;58605;48.700;8.760;2023-02-28T06:20:55;-2.30;99.90
70947;DHT22;58605;48.700;8.760;2023-02-28T06:23:22;-2.30;99.90
70947;DHT22;58605;48.700;8.760;2023-02-28T06:25:48;-2.40;99.90
70947;DHT22;58605;48.700;8.760;2023-02-28T06:28:15;-2.30;99.90
70947;DHT22;58605;48.700;8.760;2023-02-28T06:30:41;-2.30;99.90
70947;DHT22;58605;48.700;8.760;2023-02-28T06:33:07;-2.40;99.90
70947;DHT22;58605;48.700;8.760;2023-02-28T06:35:33;-2.40;99.90
70947;DHT22;58605;48.700;8.760;2023-02-28T06:37:59;-2.40;99.90
70947;DHT22;58605;48.700;8.760;2023-02-28T06:40:26;-2.40;99.90
70947;DHT22;58605;48.700;8.760;2023-02-28T06:42:52;-2.30;99.90
70947;DHT22;58605;48.700;8.760;2023-02-28T06:45:18;-2.40;99.90
70947;DHT22;58605;48.700;8.760;2023-02-28T06:47:44;-2.40;99.90
70947;DHT22;58605;48.700;8.760;2023-02-28T06:50:11;-2.40;99.90
70947;DHT22;58605;48.700;8.760;2023-02-28T06:52:38;-2.30;99.90
70947;DHT22;58605;48.700;8.760;2023-02-28T06:55:05;-2.30;99.90
70947;DHT22;58605;48.700;8.760;2023-02-28T06:57:34;-2.20;99.90
70947;DHT22;58605;48.700;8.760;2023-02-28T07:00:04;-2.20;99.90
70947;DHT22;58605;48.700;8.760;2023-02-28T07:02:30;-2.10;99.90
70947;DHT22;58605;48.700;8.760;2023-02-28T07:04:57;-2.10;99.90
70947;DHT22;58605;48.700;8.760;2023-02-28T07:07:23;-2.20;99.90
70947;DHT22;58605;48.700;8.760;2023-02-28T07:09:49;-2.10;99.90
70947;DHT22;58605;48.700;8.760;2023-02-28T07:12:15;-2.20;99.90
70947;DHT22;58605;48.700;8.760;2023-02-28T07:14:43;-2.20;99.90
70947;DHT22;58605;48.700;8.760;2023-02-28T07:17:09;-2.30;99.90
70947;DHT22;58605;48.700;8.760;2023-02-28T07:19:37;-2.30;99.90
70947;DHT22;58605;48.700;8.760;2023-02-28T07:22:03;-2.20;99.90
70947;DHT22;58605;48.700;8.760;2023-02-28T07:24:29;-2.20;99.90
70947;DHT22;58605;48.700;8.760;2023-02-28T07:26:55;-2.10;99.90
70947;DHT22;58605;48.700;8.760;2023-02-28T07:29:21;-2.20;99.90
70947;DHT22;58605;48.700;8.760;2023-02-28T07:31:48;-2.20;99.90
70947;DHT22;58605;48.700;8.760;2023-02-28T07:34:16;-2.20;99.90
70947;DHT22;58605;48.700;8.760;2023-02-28T07:36:42;-2.20;99.90
70947;DHT22;58605;48.700;8.760;2023-02-28T07:39:08;-2.20;99.90
70947;DHT22;58605;48.700;8.760;2023-02-28T07:41:35;-2.10;99.90
70947;DHT22;58605;48.700;8.760;2023-02-28T07:44:05;-2.00;99.90
70947;DHT22;58605;48.700;8.760;2023-02-28T07:46:31;-2.10;99.90
70947;DHT22;58605;48.700;8.760;2023-02-28T07:49:02;-2.20;99.90
70947;DHT22;58605;48.700;8.760;2023-02-28T07:51:28;-2.10;99.90
70947;DHT22;58605;48.700;8.760;2023-02-28T07:53:54;-2.10;99.40
70947;DHT22;58605;48.700;8.760;2023-02-28T07:56:23;-2.00;99.30
70947;DHT22;58605;48.700;8.760;2023-02-28T07:58:49;-1.90;98.30
70947;DHT22;58605;48.700;8.760;2023-02-28T08:01:15;-1.80;97.70
70947;DHT22;58605;48.700;8.760;2023-02-28T08:03:41;-1.90;97.40
70947;DHT22;58605;48.700;8.760;2023-02-28T08:06:15;-1.90;96.80
70947;DHT22;58605;48.700;8.760;2023-02-28T08:08:42;-1.80;96.40
70947;DHT22;58605;48.700;8.760;2023-02-28T08:11:08;-1.80;96.10
70947;DHT22;58605;48.700;8.760;2023-02-28T08:13:34;-1.80;95.40
70947;DHT22;58605;48.700;8.760;2023-02-28T08:16:01;-1.80;95.30
70947;DHT22;58605;48.700;8.760;2023-02-28T08:18:27;-1.90;95.30
70947;DHT22;58605;48.700;8.760;2023-02-28T08:20:53;-1.90;94.70
70947;DHT22;58605;48.700;8.760;2023-02-28T08:23:21;-1.90;95.60
70947;DHT22;58605;48.700;8.760;2023-02-28T08:25:53;-1.80;95.30
70947;DHT22;58605;48.700;8.760;2023-02-28T08:28:19;-1.90;94.80
70947;DHT22;58605;48.700;8.760;2023-02-28T08:30:45;-1.90;95.10
70947;DHT22;58605;48.700;8.760;2023-02-28T08:33:11;-1.90;94.60
70947;DHT22;58605;48.700;8.760;2023-02-28T08:35:37;-1.80;94.60
70947;DHT22;58605;48.700;8.760;2023-02-28T08:38:03;-1.70;94.90
70947;DHT22;58605;48.700;8.760;2023-02-28T08:40:30;-1.70;93.70
70947;DHT22;58605;48.700;8.760;2023-02-28T08:42:56;-1.70;93.80
70947;DHT22;58605;48.700;8.760;2023-02-28T08:45:22;-1.70;93.20
70947;DHT22;58605;48.700;8.760;2023-02-28T08:47:48;-1.70;93.30
70947;DHT22;58605;48.700;8.760;2023-02-28T08:50:14;-1.70;93.10
70947;DHT22;58605;48.700;8.760;2023-02-28T08:52:42;-1.70;93.10
70947;DHT22;58605;48.700;8.760;2023-02-28T08:55:09;-1.60;93.60
70947;DHT22;58605;48.700;8.760;2023-02-28T08:57:36;-1.50;92.70
70947;DHT22;58605;48.700;8.760;2023-02-28T09:00:04;-1.50;93.20
70947;DHT22;58605;48.700;8.760;2023-02-28T09:02:30;-1.50;93.30
70947;DHT22;58605;48.700;8.760;2023-02-28T09:04:57;-1.60;92.70
70947;DHT22;58605;48.700;8.760;2023-02-28T09:07:23;-1.60;93.10
70947;DHT22;58605;48.700;8.760;2023-02-28T09:09:50;-1.60;92.90
70947;DHT22;58605;48.700;8.760;2023-02-28T09:12:19;-1.50;93.10
70947;DHT22;58605;48.700;8.760;2023-02-28T09:14:47;-1.50;92.70
70947;DHT22;58605;48.700;8.760;2023-02-28T09:17:13;-1.60;92.40
70947;DHT22;58605;48.700;8.760;2023-02-28T09:19:39;-1.70;92.30
70947;DHT22;58605;48.700;8.760;2023-02-28T09:22:05;-1.50;92.70
70947;DHT22;58605;48.700;8.760;2023-02-28T09:24:31;-1.50;92.70
70947;DHT22;58605;48.700;8.760;2023-02-28T09:26:57;-1.40;92.90
70947;DHT22;58605;48.700;8.760;2023-02-28T09:29:23;-1.50;92.20
70947;DHT22;58605;48.700;8.760;2023-02-28T09:31:50;-1.40;92.00
70947;DHT22;58605;48.700;8.760;2023-02-28T09:34:16;-1.40;91.90
70947;DHT22;58605;48.700;8.760;2023-02-28T09:37:04;-1.30;91.20
70947;DHT22;58605;48.700;8.760;2023-02-28T09:39:30;-1.20;91.90
70947;DHT22;58605;48.700;8.760;2023-02-28T09:41:57;-1.20;91.50
70947;DHT22;58605;48.700;8.760;2023-02-28T09:44:28;-1.30;90.90
70947;DHT22;58605;48.700;8.760;2023-02-28T09:46:58;-1.30;91.50
70947;DHT22;58605;48.700;8.760;2023-02-28T09:49:33;-1.20;91.20
70947;DHT22;58605;48.700;8.760;2023-02-28T09:52:02;-1.40;90.80
70947;DHT22;58605;48.700;8.760;2023-02-28T09:54:31;-1.30;91.20
70947;DHT22;58605;48.700;8.760;2023-02-28T09:57:00;-1.20;91.10
70947;DHT22;58605;48.700;8.760;2023-02-28T09:59:42;-1.40;90.50
70947;DHT22;58605;48.700;8.760;2023-02-28T10:02:32;-1.40;90.70
70947;DHT22;58605;48.700;8.760;2023-02-28T10:05:08;-1.40;91.00
70947;DHT22;58605;48.700;8.760;2023-02-28T10:07:53;-1.30;91.00
70947;DHT22;58605;48.700;8.760;2023-02-28T10:10:28;-1.20;90.50
70947;DHT22;58605;48.700;8.760;2023-02-28T10:12:57;-1.10;90.10
70947;DHT22;58605;48.700;8.760;2023-02-28T10:15:26;-1.00;89.50
70947;DHT22;58605;48.700;8.760;2023-02-28T10:17:58;-0.90;89.40
70947;DHT22;58605;48.700;8.760;2023-02-28T10:20:25;-0.80;88.60
70947;DHT22;58605;48.700;8.760;2023-02-28T10:23:00;-0.60;86.80
70947;DHT22;58605;48.700;8.760;2023-02-28T10:25:34;-0.60;85.80
70947;DHT22;58605;48.700;8.760;2023-02-28T10:28:05;-0.50;85.80
70947;DHT22;58605;48.700;8.760;2023-02-28T10:30:36;-0.50;84.60
70947;DHT22;58605;48.700;8.760;2023-02-28T10:33:04;-0.50;84.10
70947;DHT22;58605;48.700;8.760;2023-02-28T10:35:37;-0.50;84.30
70947;DHT22;58605;48.700;8.760;2023-02-28T10:38:11;-0.40;84.40
70947;DHT22;58605;48.700;8.760;2023-02-28T10:40:40;-0.30;83.40
70947;DHT22;58605;48.700;8.760;2023-02-28T10:43:19;-0.30;82.30
70947;DHT22;58605;48.700;8.760;2023-02-28T10:45:55;-0.30;82.40
70947;DHT22;58605;48.700;8.760;2023-02-28T10:48:32;-0.40;81.30
70947;DHT22;58605;48.700;8.760;2023-02-28T10:50:58;-0.40;81.70
70947;DHT22;58605;48.700;8.760;2023-02-28T10:53:37;-0.30;81.80
70947;DHT22;58605;48.700;8.760;2023-02-28T10:56:06;-0.20;82.40
70947;DHT22;58605;48.700;8.760;2023-02-28T10:58:51;-0.40;81.30
70947;DHT22;58605;48.700;8.760;2023-02-28T11:01:20;-0.40;81.50
70947;DHT22;58605;48.700;8.760;2023-02-28T11:03:48;-0.30;81.20
70947;DHT22;58605;48.700;8.760;2023-02-28T11:06:17;-0.30;80.70
70947;DHT22;58605;48.700;8.760;2023-02-28T11:08:46;-0.30;80.70
70947;DHT22;58605;48.700;8.760;2023-02-28T11:11:13;-0.10;80.60
70947;DHT22;58605;48.700;8.760;2023-02-28T11:13:39;0.00;80.00
70947;DHT22;58605;48.700;8.760;2023-02-28T11:16:08;0.00;79.10
70947;DHT22;58605;48.700;8.760;2023-02-28T11:18:40;0.10;79.40
70947;DHT22;58605;48.700;8.760;2023-02-28T11:21:14;0.10;78.80
70947;DHT22;58605;48.700;8.760;2023-02-28T11:23:43;-0.10;78.40
70947;DHT22;58605;48.700;8.760;2023-02-28T11:26:09;-0.20;78.80
70947;DHT22;58605;48.700;8.760;2023-02-28T11:28:38;-0.10;79.30
70947;DHT22;58605;48.700;8.760;2023-02-28T11:31:14;0.00;78.60
70947;DHT22;58605;48.700;8.760;2023-02-28T11:33:42;0.10;78.60
70947;DHT22;58605;48.700;8.760;2023-02-28T11:36:14;0.10;78.80
70947;DHT22;58605;48.700;8.760;2023-02-28T11:38:40;0.10;79.40
70947;DHT22;58605;48.700;8.760;2023-02-28T11:44:28;0.20;78.60
70947;DHT22;58605;48.700;8.760;2023-02-28T11:47:00;0.20;78.20
70947;DHT22;58605;48.700;8.760;2023-02-28T11:49:35;0.20;77.80
70947;DHT22;58605;48.700;8.760;2023-02-28T11:52:15;0.20;77.90
70947;DHT22;58605;48.700;8.760;2023-02-28T11:54:59;0.20;77.50
70947;DHT22;58605;48.700;8.760;2023-02-28T11:57:35;0.30;76.90
70947;DHT22;58605;48.700;8.760;2023-02-28T12:00:15;0.40;77.10
70947;DHT22;58605;48.700;8.760;2023-02-28T12:02:56;0.40;77.10
70947;DHT22;58605;48.700;8.760;2023-02-28T12:05:30;0.60;77.20
70947;DHT22;58605;48.700;8.760;2023-02-28T12:08:06;0.60;76.40
70947;DHT22;58605;48.700;8.760;2023-02-28T12:10:44;0.60;76.00
70947;DHT22;58605;48.700;8.760;2023-02-28T12:13:18;0.60;75.90
70947;DHT22;58605;48.700;8.760;2023-02-28T12:16:08;0.50;76.30
70947;DHT22;58605;48.700;8.760;2023-02-28T12:19:02;0.60;76.10
70947;DHT22;58605;48.700;8.760;2023-02-28T12:21:41;0.70;75.70
70947;DHT22;58605;48.700;8.760;2023-02-28T12:24:36;0.60;75.70
70947;DHT22;58605;48.700;8.760;2023-02-28T12:27:07;0.60;76.00
70947;DHT22;58605;48.700;8.760;2023-02-28T12:29:43;0.70;75.50
70947;DHT22;58605;48.700;8.760;2023-02-28T12:32:14;0.80;75.90
70947;DHT22;58605;48.700;8.760;2023-02-28T12:34:44;1.00;76.50
70947;DHT22;58605;48.700;8.760;2023-02-28T12:37:17;1.00;75.30
70947;DHT22;58605;48.700;8.760;2023-02-28T12:39:50;0.80;74.20
70947;DHT22;58605;48.700;8.760;2023-02-28T12:42:22;0.60;74.40
70947;DHT22;58605;48.700;8.760;2023-02-28T12:44:52;0.30;75.10
70947;DHT22;58605;48.700;8.760;2023-02-28T12:47:19;0.30;75.70
70947;DHT22;58605;48.700;8.760;2023-02-28T12:49:48;0.30;76.00
70947;DHT22;58605;48.700;8.760;2023-02-28T12:52:17;0.20;76.10
70947;DHT22;58605;48.700;8.760;2023-02-28T12:54:51;0.30;76.30
70947;DHT22;58605;48.700;8.760;2023-02-28T12:57:22;0.30;76.30
70947;DHT22;58605;48.700;8.760;2023-02-28T12:59:54;0.20;76.60
70947;DHT22;58605;48.700;8.760;2023-02-28T13:02:58;0.20;76.70
70947;DHT22;58605;48.700;8.760;2023-02-28T13:06:03;0.30;76.80
70947;DHT22;58605;48.700;8.760;2023-02-28T13:09:08;0.60;77.30
70947;DHT22;58605;48.700;8.760;2023-02-28T13:11:42;0.70;76.20
70947;DHT22;58605;48.700;8.760;2023-02-28T13:14:28;0.70;75.70
70947;DHT22;58605;48.700;8.760;2023-02-28T13:17:10;0.90;76.30
70947;DHT22;58605;48.700;8.760;2023-02-28T13:19:42;1.70;73.50
70947;DHT22;58605;48.700;8.760;2023-02-28T13:22:18;1.80;73.00
70947;DHT22;58605;48.700;8.760;2023-02-28T13:24:46;1.70;73.30
70947;DHT22;58605;48.700;8.760;2023-02-28T13:27:36;1.70;73.30
70947;DHT22;58605;48.700;8.760;2023-02-28T13:33:41;1.80;72.30
70947;DHT22;58605;48.700;8.760;2023-02-28T13:36:28;1.70;72.30
70947;DHT22;58605;48.700;8.760;2023-02-28T13:38:57;1.50;74.00
70947;DHT22;58605;48.700;8.760;2023-02-28T13:41:46;1.60;73.40
70947;DHT22;58605;48.700;8.760;2023-02-28T13:44:15;1.70;73.20
70947;DHT22;58605;48.700;8.760;2023-02-28T13:47:20;1.70;72.80
70947;DHT22;58605;48.700;8.760;2023-02-28T13:49:47;1.60;72.70
70947;DHT22;58605;48.700;8.760;2023-02-28T13:52:17;1.70;72.70
70947;DHT22;58605;48.700;8.760;2023-02-28T13:54:56;1.90;72.50
70947;DHT22;58605;48.700;8.760;2023-02-28T13:57:31;2.00;71.70
70947;DHT22;58605;48.700;8.760;2023-02-28T14:00:15;2.40;70.30
70947;DHT22;58605;48.700;8.760;2023-02-28T14:03:06;2.40;70.60
70947;DHT22;58605;48.700;8.760;2023-02-28T14:05:36;2.20;70.20
70947;DHT22;58605;48.700;8.760;2023-02-28T14:08:06;2.00;70.60
70947;DHT22;58605;48.700;8.760;2023-02-28T14:10:39;2.00;71.50
70947;DHT22;58605;48.700;8.760;2023-02-28T14:13:37;2.40;70.80
70947;DHT22;58605;48.700;8.760;2023-02-28T14:16:12;2.20;70.60
70947;DHT22;58605;48.700;8.760;2023-02-28T14:18:41;2.20;69.80
70947;DHT22;58605;48.700;8.760;2023-02-28T14:21:16;2.20;70.30
70947;DHT22;58605;48.700;8.760;2023-02-28T14:24:28;2.60;70.40
70947;DHT22;58605;48.700;8.760;2023-02-28T14:27:24;2.70;69.50
70947;DHT22;58605;48.700;8.760;2023-02-28T14:33:18;2.70;68.90
70947;DHT22;58605;48.700;8.760;2023-02-28T14:36:04;3.00;68.00
70947;DHT22;58605;48.700;8.760;2023-02-28T14:38:35;2.60;67.80
70947;DHT22;58605;48.700;8.760;2023-02-28T14:41:06;2.50;68.80
70947;DHT22;58605;48.700;8.760;2023-02-28T14:43:48;2.50;69.60
70947;DHT22;58605;48.700;8.760;2023-02-28T14:46:15;2.70;68.80
70947;DHT22;58605;48.700;8.760;2023-02-28T14:48:46;2.60;68.30
70947;DHT22;58605;48.700;8.760;2023-02-28T14:51:18;2.70;68.80
70947;DHT22;58605;48.700;8.760;2023-02-28T14:53:49;3.00;68.40
70947;DHT22;58605;48.700;8.760;2023-02-28T14:56:22;2.90;68.00
70947;DHT22;58605;48.700;8.760;2023-02-28T14:58:52;2.90;67.30
70947;DHT22;58605;48.700;8.760;2023-02-28T15:01:20;2.70;67.50
70947;DHT22;58605;48.700;8.760;2023-02-28T15:03:57;2.60;68.50
70947;DHT22;58605;48.700;8.760;2023-02-28T15:06:23;2.40;68.50
70947;DHT22;58605;48.700;8.760;2023-02-28T15:09:07;2.40;68.30
70947;DHT22;58605;48.700;8.760;2023-02-28T15:11:33;2.30;69.30
70947;DHT22;58605;48.700;8.760;2023-02-28T15:14:00;2.40;68.80
70947;DHT22;58605;48.700;8.760;2023-02-28T15:16:31;2.70;69.20
70947;DHT22;58605;48.700;8.760;2023-02-28T15:19:03;2.70;68.30
70947;DHT22;58605;48.700;8.760;2023-02-28T15:21:34;2.70;67.80
70947;DHT22;58605;48.700;8.760;2023-02-28T15:24:04;2.90;68.20
70947;DHT22;58605;48.700;8.760;2023-02-28T15:26:33;3.00;66.50
70947;DHT22;58605;48.700;8.760;2023-02-28T15:29:02;3.00;66.80
70947;DHT22;58605;48.700;8.760;2023-02-28T15:31:33;3.10;66.50
70947;DHT22;58605;48.700;8.760;2023-02-28T15:34:05;3.00;66.20
70947;DHT22;58605;48.700;8.760;2023-02-28T15:36:34;3.00;66.90
70947;DHT22;58605;48.700;8.760;2023-02-28T15:39:03;3.00;66.70
70947;DHT22;58605;48.700;8.760;2023-02-28T15:41:43;3.00;66.90
70947;DHT22;58605;48.700;8.760;2023-02-28T15:44:25;3.10;67.50
70947;DHT22;58605;48.700;8.760;2023-02-28T15:46:59;3.10;66.30
70947;DHT22;58605;48.700;8.760;2023-02-28T15:49:29;3.10;66.80
70947;DHT22;58605;48.700;8.760;2023-02-28T15:51:59;3.20;66.50
70947;DHT22;58605;48.700;8.760;2023-02-28T15:54:29;3.30;66.60
70947;DHT22;58605;48.700;8.760;2023-02-28T15:56:57;3.30;66.20
70947;DHT22;58605;48.700;8.760;2023-02-28T15:59:26;3.20;65.70
70947;DHT22;58605;48.700;8.760;2023-02-28T16:02:11;3.20;66.60
70947;DHT22;58605;48.700;8.760;2023-02-28T16:04:55;2.90;66.40
70947;DHT22;58605;48.700;8.760;2023-02-28T16:07:22;2.70;67.10
70947;DHT22;58605;48.700;8.760;2023-02-28T16:09:48;2.90;67.10
70947;DHT22;58605;48.700;8.760;2023-02-28T16:12:14;3.00;66.80
70947;DHT22;58605;48.700;8.760;2023-02-28T16:14:40;3.00;66.50
70947;DHT22;58605;48.700;8.760;2023-02-28T16:17:23;2.70;67.00